Time;durP1;ratioP1;P1;durP2;ratioP2;P2;SDS_P1;SDS_P2;PMS_P1;PMS_P2;Temp;Humidity;BMP_temperature;BMP_pressure;BME280_temperature;BME280_humidity;BME280_pressure;Samples;Min_cycle;Max_cycle;Signal;HPM_P1;HPM_P2
2021/03/09 00:01:18;;;;;;;382.17;142.60;;;;;;;1.70;60.74;99116.44;5012930;28;20040;-69
2021/03/09 00:03:43;;;;;;;368.27;136.53;;;;;;;1.71;60.31;99111.41;5014512;28;20420;-69
2021/03/09 00:06:09;;;;;;;378.27;139.53;;;;;;;1.71;60.00;99108.88;5015549;28;20453;-70
2021/03/09 00:08:34;;;;;;;377.43;135.90;;;;;;;1.72;59.36;99117.34;5018542;28;20026;-69
2021/03/09 00:10:59;;;;;;;376.53;135.80;;;;;;;1.71;59.82;99119.00;5002612;28;20046;-70
2021/03/09 00:13:25;;;;;;;383.30;138.10;;;;;;;1.72;59.62;99115.66;5018991;28;20279;-69
2021/03/09 00:15:52;;;;;;;370.70;137.33;;;;;;;1.74;59.35;99119.06;5018629;28;20044;-69
2021/03/09 00:18:17;;;;;;;373.70;141.50;;;;;;;1.70;59.27;99119.81;5017786;28;20029;-69
2021/03/09 00:20:42;;;;;;;383.57;149.13;;;;;;;1.70;59.76;99109.69;5018345;28;20040;-69
2021/03/09 00:23:08;;;;;;;379.43;136.03;;;;;;;1.64;60.13;99111.25;5001525;28;20022;-70
2021/03/09 00:25:33;;;;;;;407.43;145.67;;;;;;;1.62;60.66;99118.78;4998121;28;20172;-69
2021/03/09 00:27:59;;;;;;;409.23;138.50;;;;;;;1.62;60.65;99118.78;5001428;28;20112;-69
2021/03/09 00:30:24;;;;;;;348.03;133.90;;;;;;;1.60;61.52;99112.00;5018624;28;20037;-70
2021/03/09 00:32:50;;;;;;;350.70;134.97;;;;;;;1.59;61.45;99108.59;5018930;28;20149;-69
2021/03/09 00:35:15;;;;;;;360.77;135.10;;;;;;;1.56;62.02;99108.53;5016312;28;20038;-69
2021/03/09 00:37:41;;;;;;;374.70;137.07;;;;;;;1.54;62.08;99106.78;5018243;28;20030;-69
2021/03/09 00:40:07;;;;;;;375.97;133.60;;;;;;;1.53;63.07;99113.50;5017952;28;20029;-70
2021/03/09 00:42:32;;;;;;;386.80;137.00;;;;;;;1.47;63.41;99109.97;5000704;28;20038;-69
2021/03/09 00:44:58;;;;;;;367.27;131.30;;;;;;;1.43;63.47;99109.06;5001026;28;20021;-69
2021/03/09 00:47:23;;;;;;;393.50;134.37;;;;;;;1.49;63.29;99110.84;5019756;28;20034;-71
2021/03/09 00:49:49;;;;;;;407.63;133.17;;;;;;;1.49;62.62;99106.66;5015235;28;20387;-70
2021/03/09 00:52:14;;;;;;;353.93;128.07;;;;;;;1.47;62.96;99103.25;5018474;28;20022;-70
2021/03/09 00:54:39;;;;;;;323.30;130.07;;;;;;;1.51;62.44;99105.03;5014618;28;20437;-69
2021/03/09 00:57:05;;;;;;;343.70;132.20;;;;;;;1.45;62.46;99102.34;5019155;28;20036;-70
2021/03/09 00:59:30;;;;;;;353.37;134.87;;;;;;;1.48;62.96;99109.16;5016453;28;20310;-70
2021/03/09 01:01:56;;;;;;;358.87;133.57;;;;;;;1.47;63.22;99105.78;5018173;28;20060;-70
2021/03/09 01:04:21;;;;;;;361.07;134.43;;;;;;;1.46;63.17;99103.22;5017627;28;20032;-70
2021/03/09 01:06:46;;;;;;;382.33;133.80;;;;;;;1.44;63.45;99102.34;5018490;28;20084;-69
2021/03/09 01:09:13;;;;;;;400.17;138.83;;;;;;;1.42;63.94;99099.75;5018898;28;20034;-69
2021/03/09 01:11:38;;;;;;;417.73;133.73;;;;;;;1.38;63.28;99098.84;5016633;28;20335;-69
2021/03/09 01:14:04;;;;;;;416.10;134.60;;;;;;;1.35;63.53;99093.72;5018719;28;20037;-69
2021/03/09 01:16:29;;;;;;;389.87;136.20;;;;;;;1.40;63.34;99095.50;5017936;28;20177;-69
2021/03/09 01:18:54;;;;;;;393.23;142.33;;;;;;;1.38;63.52;99093.78;5017458;28;20052;-69
2021/03/09 01:21:20;;;;;;;402.10;136.87;;;;;;;1.42;63.20;99092.19;5017948;28;20059;-69
2021/03/09 01:23:45;;;;;;;418.87;137.10;;;;;;;1.40;63.87;99087.94;5016713;28;20044;-70
2021/03/09 01:26:11;;;;;;;422.47;133.47;;;;;;;1.31;64.04;99086.03;5018737;28;20107;-69
2021/03/09 01:28:36;;;;;;;421.80;129.47;;;;;;;1.28;64.42;99080.88;5017058;28;20129;-70
2021/03/09 01:31:02;;;;;;;418.63;129.23;;;;;;;1.23;64.49;99080.75;5017062;28;20326;-69
2021/03/09 01:33:27;;;;;;;426.77;135.27;;;;;;;1.23;64.40;99082.47;5017100;28;20036;-69
2021/03/09 01:35:52;;;;;;;405.33;131.47;;;;;;;1.26;64.95;99077.47;5017414;28;20030;-70
2021/03/09 01:38:18;;;;;;;402.33;136.27;;;;;;;1.25;64.61;99075.75;5016984;28;20029;-69
2021/03/09 01:40:43;;;;;;;400.37;132.13;;;;;;;1.21;64.99;99069.78;5014100;28;20050;-70
2021/03/09 01:43:10;;;;;;;407.57;132.57;;;;;;;1.24;65.24;99069.00;5017860;28;20045;-70
2021/03/09 01:45:35;;;;;;;420.13;139.23;;;;;;;1.17;65.51;99078.09;5017748;28;20029;-69
2021/03/09 01:48:05;;;;;;;424.17;139.07;;;;;;;1.09;65.62;99051.81;5016778;28;20061;-69
2021/03/09 01:50:35;;;;;;;399.53;137.97;;;;;;;1.09;65.99;99063.56;5015881;28;20132;-69
2021/03/09 01:53:06;;;;;;;388.83;130.53;;;;;;;1.01;66.04;99065.91;5017541;28;20049;-69
2021/03/09 01:55:32;;;;;;;380.37;131.27;;;;;;;0.87;66.22;99060.50;5015293;28;20112;-69
2021/03/09 01:57:59;;;;;;;379.20;131.07;;;;;;;0.83;65.88;99053.66;5016405;28;20038;-69
2021/03/09 02:00:24;;;;;;;374.43;128.40;;;;;;;0.74;65.76;99055.94;5014447;28;20026;-69
2021/03/09 02:02:50;;;;;;;378.17;126.80;;;;;;;0.68;65.84;99055.75;5017800;28;20037;-69
2021/03/09 02:05:16;;;;;;;386.03;138.53;;;;;;;0.62;65.98;99053.09;5014551;28;20377;-70
2021/03/09 02:07:41;;;;;;;369.60;128.87;;;;;;;0.55;66.34;99047.84;5016451;28;20029;-69
2021/03/09 02:10:11;;;;;;;379.67;128.00;;;;;;;0.52;66.83;99048.59;5015665;28;20041;-69
2021/03/09 02:12:53;;;;;;;358.83;126.87;;;;;;;0.47;67.46;99045.09;5017164;28;20064;-69
2021/03/09 02:15:34;;;;;;;368.97;126.47;;;;;;;0.41;67.73;99042.44;5014903;28;20067;-69
2021/03/09 02:18:04;;;;;;;392.53;126.10;;;;;;;0.31;68.25;99045.50;5014508;28;20105;-70
2021/03/09 02:21:06;;;;;;;405.47;126.70;;;;;;;0.19;68.61;99038.44;5015547;28;20068;-69
2021/03/09 02:23:53;;;;;;;415.13;128.43;;;;;;;0.14;69.11;99044.16;5016804;28;20025;-71
2021/03/09 02:27:09;;;;;;;415.63;127.63;;;;;;;0.03;69.75;99037.97;5013834;28;20376;-70
2021/03/09 02:29:43;;;;;;;382.17;121.73;;;;;;;-0.04;70.55;99030.22;4974114;28;20277;-70
2021/03/09 02:32:31;;;;;;;367.47;122.30;;;;;;;-0.13;70.82;99029.94;5014197;28;20018;-70
2021/03/09 02:35:00;;;;;;;372.67;120.00;;;;;;;-0.25;70.90;99036.28;5016481;28;20338;-69
2021/03/09 02:37:35;;;;;;;381.67;119.93;;;;;;;-0.31;71.17;99036.97;5014187;28;20053;-69
2021/03/09 02:40:06;;;;;;;387.17;121.47;;;;;;;-0.42;71.85;99034.94;5016597;28;20302;-69
2021/03/09 02:42:35;;;;;;;393.70;123.33;;;;;;;-0.48;71.67;99036.47;5015223;28;20044;-69
2021/03/09 02:45:01;;;;;;;391.17;121.87;;;;;;;-0.50;72.14;99032.16;5014715;28;20084;-69
2021/03/09 02:47:30;;;;;;;395.90;123.70;;;;;;;-0.51;72.08;99040.56;5013356;28;20036;-69
2021/03/09 02:49:58;;;;;;;394.40;121.23;;;;;;;-0.55;72.51;99039.56;5015448;28;20022;-69
2021/03/09 02:52:26;;;;;;;402.23;125.77;;;;;;;-0.56;72.67;99039.56;5015419;28;20017;-69
2021/03/09 02:54:52;;;;;;;397.93;122.30;;;;;;;-0.67;72.46;99015.69;5014392;28;20384;-69
2021/03/09 02:57:20;;;;;;;404.53;121.57;;;;;;;-0.56;72.88;99035.38;5015650;28;20076;-70
2021/03/09 02:59:45;;;;;;;396.40;120.23;;;;;;;-0.60;72.73;99032.72;5015145;28;20304;-69
2021/03/09 03:02:12;;;;;;;397.30;122.13;;;;;;;-0.59;72.56;99032.75;5016284;28;20331;-68
2021/03/09 03:04:41;;;;;;;397.40;121.67;;;;;;;-0.54;73.04;99030.38;5012968;28;21831;-69
2021/03/09 03:07:09;;;;;;;405.10;121.40;;;;;;;-0.58;73.26;99039.50;5015935;28;20272;-69
2021/03/09 03:09:37;;;;;;;401.27;120.93;;;;;;;-0.61;73.23;99031.00;5010812;28;20341;-68
2021/03/09 03:12:03;;;;;;;403.93;121.43;;;;;;;-0.67;73.04;99036.69;5015415;28;20261;-68
2021/03/09 03:14:30;;;;;;;24.30;11.87;;;;;;;-0.58;73.21;99028.56;5015207;28;20300;-68
2021/03/09 03:16:57;;;;;;;18.17;9.40;;;;;;;-0.54;72.72;99028.72;5015798;28;20022;-67
2021/03/09 03:19:24;;;;;;;19.47;10.57;;;;;;;-0.58;73.38;99033.59;5017292;28;20201;-67
2021/03/09 03:21:50;;;;;;;21.37;10.73;;;;;;;-0.59;73.38;99029.38;4990960;28;20033;-66
2021/03/09 03:24:16;;;;;;;22.47;10.07;;;;;;;-0.62;72.92;99031.78;5014046;28;20045;-66
2021/03/09 03:26:45;;;;;;;25.27;10.37;;;;;;;-0.61;73.01;99033.50;5015995;28;20244;-66
2021/03/09 03:29:12;;;;;;;20.77;9.60;;;;;;;-0.64;73.05;99033.44;4999075;28;20045;-66
2021/03/09 03:31:37;;;;;;;22.03;10.03;;;;;;;-0.64;73.10;99036.81;4997883;28;20040;-66
2021/03/09 03:34:04;;;;;;;27.10;11.70;;;;;;;-0.62;72.90;99036.81;5015257;28;20390;-66
2021/03/09 03:36:36;;;;;;;23.07;11.30;;;;;;;-0.61;73.04;99028.47;5016943;28;20064;-66
2021/03/09 03:39:04;;;;;;;20.97;9.97;;;;;;;-0.67;72.84;99025.75;5005849;28;20338;-69
2021/03/09 03:41:30;;;;;;;31.97;12.07;;;;;;;-0.73;72.62;99026.44;5019931;28;20068;-66
2021/03/09 03:43:55;;;;;;;21.83;10.27;;;;;;;-0.78;72.85;99020.41;5018923;28;20014;-66
2021/03/09 03:46:21;;;;;;;23.40;11.00;;;;;;;-0.78;72.90;99027.94;5019570;28;20029;-66
2021/03/09 03:48:46;;;;;;;27.33;11.77;;;;;;;-0.85;72.93;99030.22;5019208;28;20061;-66
2021/03/09 03:51:18;;;;;;;25.57;10.83;;;;;;;-0.83;73.77;99026.09;5018675;28;20029;-66
2021/03/09 03:54:11;;;;;;;22.37;10.60;;;;;;;-0.83;73.66;99021.91;5000377;28;20021;-65
2021/03/09 03:56:49;;;;;;;27.07;11.03;;;;;;;-0.84;73.54;99026.88;5019655;28;20557;-67
2021/03/09 03:59:21;;;;;;;26.57;11.47;;;;;;;-0.81;74.22;99027.00;5017568;28;20030;-69
2021/03/09 04:01:47;;;;;;;24.07;9.47;;;;;;;-0.84;73.79;99026.88;5018191;28;20030;-70
2021/03/09 04:04:14;;;;;;;28.23;12.20;;;;;;;-0.82;73.88;99026.13;4993768;28;20646;-70
2021/03/09 04:06:49;;;;;;;26.33;10.80;;;;;;;-0.85;73.78;99020.16;5013079;28;20033;-70
2021/03/09 04:09:17;;;;;;;21.40;8.80;;;;;;;-0.90;73.72;99029.22;5010158;28;20030;-69
2021/03/09 04:11:44;;;;;;;29.17;11.83;;;;;;;-0.94;73.67;99021.56;5012455;28;20036;-70
2021/03/09 04:14:12;;;;;;;24.90;11.17;;;;;;;-0.99;74.59;99019.72;5012444;28;20030;-70
2021/03/09 04:16:40;;;;;;;26.17;11.43;;;;;;;-1.02;74.31;99015.41;5016301;28;20030;-70
2021/03/09 04:19:06;;;;;;;32.07;13.70;;;;;;;-1.00;74.12;99012.97;5017884;28;20640;-68
2021/03/09 04:21:34;;;;;;;34.57;14.37;;;;;;;-0.96;74.10;99022.31;5017892;28;20026;-70
2021/03/09 04:24:02;;;;;;;26.77;13.10;;;;;;;-0.97;74.43;99030.66;5000574;28;20033;-70
2021/03/09 04:26:29;;;;;;;38.03;14.30;;;;;;;-0.97;73.97;99020.59;5010662;28;20026;-68
2021/03/09 04:28:55;;;;;;;30.93;14.20;;;;;;;-0.96;73.98;99019.81;5017433;28;20260;-69
2021/03/09 04:31:21;;;;;;;31.13;13.53;;;;;;;-0.95;74.04;99022.38;5018569;28;20034;-70
2021/03/09 04:33:49;;;;;;;32.90;13.57;;;;;;;-0.86;73.93;99014.28;5016797;28;20022;-70
2021/03/09 04:36:16;;;;;;;31.13;12.80;;;;;;;-0.83;73.75;99026.09;5016007;28;20255;-70
2021/03/09 04:38:41;;;;;;;35.23;14.30;;;;;;;-0.80;73.73;99026.16;5016608;28;20435;-70
2021/03/09 04:41:07;;;;;;;26.87;12.77;;;;;;;-0.88;73.51;99008.31;5017327;28;20033;-70
2021/03/09 04:43:34;;;;;;;26.57;11.57;;;;;;;-0.74;73.21;99024.72;5017932;28;20037;-70
2021/03/09 04:46:01;;;;;;;43.60;16.80;;;;;;;-0.76;73.22;99023.81;5015772;28;20033;-70
2021/03/09 04:48:27;;;;;;;30.17;13.33;;;;;;;-0.74;73.31;99016.31;5017659;28;20041;-70
2021/03/09 04:51:02;;;;;;;33.80;12.53;;;;;;;-0.67;73.24;99020.72;5016166;28;20022;-70
2021/03/09 04:53:30;;;;;;;26.75;11.98;;;;;;;-0.66;73.35;99019.91;5016605;28;20022;-70
2021/03/09 04:55:57;;;;;;;32.17;13.50;;;;;;;-0.65;73.29;99019.13;5016208;28;20442;-70
2021/03/09 04:58:22;;;;;;;27.53;12.10;;;;;;;-0.69;73.23;99004.72;5017198;28;20029;-70
2021/03/09 05:00:48;;;;;;;25.33;11.30;;;;;;;-0.55;72.86;99008.50;5018495;28;20026;-70
2021/03/09 05:03:13;;;;;;;30.73;11.57;;;;;;;-0.54;72.58;98995.97;4994829;28;20211;-70
2021/03/09 05:05:39;;;;;;;30.67;12.33;;;;;;;-0.46;72.52;99009.66;5017462;28;20382;-70
2021/03/09 05:08:04;;;;;;;29.20;12.73;;;;;;;-0.43;72.58;99001.34;5017290;28;20064;-69
2021/03/09 05:10:30;;;;;;;31.13;13.23;;;;;;;-0.41;72.69;99002.25;5000686;28;20045;-69
2021/03/09 05:12:55;;;;;;;32.40;13.70;;;;;;;-0.38;72.94;98999.81;5018380;28;20017;-69
2021/03/09 05:15:21;;;;;;;25.43;12.80;;;;;;;-0.32;72.90;99000.00;4998952;28;20080;-70
2021/03/09 05:17:47;;;;;;;30.30;12.47;;;;;;;-0.30;72.80;98997.53;5017948;28;20315;-70
2021/03/09 05:20:13;;;;;;;29.67;12.60;;;;;;;-0.25;73.13;99001.88;5014298;28;20306;-71
2021/03/09 05:22:40;;;;;;;38.97;18.53;;;;;;;-0.34;73.78;99009.16;5018141;28;20145;-70
2021/03/09 05:25:09;;;;;;;34.13;13.83;;;;;;;-0.28;73.91;99001.78;5016345;28;20451;-70
2021/03/09 05:27:35;;;;;;;30.60;14.03;;;;;;;-0.26;73.97;99007.75;5017172;28;20025;-70
2021/03/09 05:30:00;;;;;;;30.67;14.00;;;;;;;-0.18;73.73;99001.25;5000221;28;20056;-69
2021/03/09 05:32:25;;;;;;;30.57;13.30;;;;;;;-0.14;73.34;99010.63;4994926;28;20401;-71
2021/03/09 05:34:51;;;;;;;26.73;13.13;;;;;;;-0.03;72.81;99003.34;5001048;28;20029;-71
2021/03/09 05:37:16;;;;;;;25.70;12.63;;;;;;;-0.04;72.81;99002.50;5017526;28;20268;-71
2021/03/09 05:39:42;;;;;;;31.50;12.97;;;;;;;0.07;72.76;99009.53;5015927;28;20034;-70
2021/03/09 05:42:08;;;;;;;29.23;12.57;;;;;;;0.09;72.63;98995.28;5016067;28;20040;-70
2021/03/09 05:44:34;;;;;;;24.33;12.40;;;;;;;0.20;72.34;99001.50;5017538;28;20391;-70
2021/03/09 05:47:03;;;;;;;27.13;12.37;;;;;;;0.25;72.06;98997.44;5015772;28;20026;-70
2021/03/09 05:49:28;;;;;;;38.00;15.33;;;;;;;0.27;71.83;99006.75;5008078;28;20049;-70
2021/03/09 05:51:54;;;;;;;29.97;12.37;;;;;;;0.30;71.82;99005.97;4999102;28;20026;-69
2021/03/09 05:54:21;;;;;;;30.97;12.50;;;;;;;0.35;71.99;99007.81;5016946;28;20068;-69
2021/03/09 05:56:47;;;;;;;29.13;12.13;;;;;;;0.30;72.08;98996.72;5018161;28;20040;-71
2021/03/09 05:59:13;;;;;;;31.27;14.67;;;;;;;0.38;71.61;99004.53;5018975;28;20034;-71
2021/03/09 06:01:38;;;;;;;31.83;13.37;;;;;;;0.33;71.71;98993.47;5015777;28;20057;-68
2021/03/09 06:04:05;;;;;;;31.23;14.37;;;;;;;0.43;71.89;98998.78;5017045;28;20048;-70
2021/03/09 06:06:31;;;;;;;26.37;14.00;;;;;;;0.41;71.76;98997.91;5017825;28;20045;-69
2021/03/09 06:08:57;;;;;;;30.97;13.63;;;;;;;0.35;71.89;98996.84;5019348;28;20368;-70
2021/03/09 06:11:22;;;;;;;28.53;13.00;;;;;;;0.39;71.91;98996.97;4999721;28;20026;-69
2021/03/09 06:13:48;;;;;;;30.27;12.80;;;;;;;0.42;71.29;98994.53;5020389;28;20391;-69
2021/03/09 06:16:15;;;;;;;28.67;13.50;;;;;;;0.47;71.73;98992.13;5020639;28;20036;-70
2021/03/09 06:18:57;;;;;;;28.83;13.87;;;;;;;0.53;71.19;99002.41;5021853;28;20041;-71
2021/03/09 06:21:23;;;;;;;42.10;16.37;;;;;;;0.51;71.31;99004.00;5019579;28;20486;-70
2021/03/09 06:23:50;;;;;;;25.57;12.10;;;;;;;0.45;71.64;99003.88;5021021;28;20290;-71
2021/03/09 06:26:36;;;;;;;32.20;15.57;;;;;;;0.54;71.29;99005.78;5020717;28;20299;-72
2021/03/09 06:29:08;;;;;;;31.93;13.63;;;;;;;0.58;70.85;99010.09;5017699;28;20036;-71
2021/03/09 06:31:34;;;;;;;30.60;12.90;;;;;;;0.49;69.41;99007.31;5017227;28;20060;-71
2021/03/09 06:34:28;;;;;;;24.33;11.60;;;;;;;0.73;68.77;99001.25;5021378;28;20029;-72
2021/03/09 06:37:00;;;;;;;24.37;10.70;;;;;;;0.77;67.59;99005.53;5022063;28;20018;-70
2021/03/09 06:39:40;;;;;;;25.90;11.77;;;;;;;0.68;67.56;99014.56;5019065;28;20367;-70
2021/03/09 06:42:05;;;;;;;24.40;11.23;;;;;;;0.61;68.44;99018.59;5016202;28;20076;-69
2021/03/09 06:44:31;;;;;;;27.87;13.30;;;;;;;0.67;68.70;99013.72;5019283;28;20030;-69
2021/03/09 06:46:56;;;;;;;28.77;11.77;;;;;;;0.68;68.87;99010.34;5017171;28;20034;-69
2021/03/09 06:49:22;;;;;;;35.93;14.23;;;;;;;0.69;68.08;99011.22;4996383;28;20108;-70
2021/03/09 06:51:47;;;;;;;22.87;11.53;;;;;;;0.72;67.66;99017.19;4996223;28;20125;-68
2021/03/09 06:54:13;;;;;;;31.70;12.83;;;;;;;0.72;66.57;99019.72;4998142;28;20026;-64
2021/03/09 06:56:41;;;;;;;26.70;11.93;;;;;;;0.82;66.51;99026.72;4996454;28;20121;-70
2021/03/09 06:59:24;;;;;;;27.73;12.83;;;;;;;0.95;65.94;99032.06;4982526;28;20063;-68
2021/03/09 07:02:05;;;;;;;25.63;12.90;;;;;;;1.00;65.91;99028.00;4995834;28;20034;-66
2021/03/09 07:04:31;;;;;;;25.53;12.53;;;;;;;0.92;65.97;99030.34;4997513;28;20061;-68
2021/03/09 07:06:57;;;;;;;26.13;11.20;;;;;;;0.91;66.02;99032.00;4998000;28;20284;-70
2021/03/09 07:09:23;;;;;;;27.40;12.03;;;;;;;1.02;65.85;99031.44;4995249;28;20033;-70
2021/03/09 07:11:48;;;;;;;28.77;13.53;;;;;;;1.05;65.49;99034.03;4995774;28;20330;-69
2021/03/09 07:14:16;;;;;;;21.20;11.63;;;;;;;1.15;65.36;99025.84;4998726;28;20030;-70
2021/03/09 07:16:47;;;;;;;27.57;12.13;;;;;;;1.26;64.92;99024.44;4998769;28;20081;-69
2021/03/09 07:19:14;;;;;;;25.73;12.17;;;;;;;1.21;64.46;99016.75;4998420;28;20026;-69
2021/03/09 07:21:42;;;;;;;29.47;12.73;;;;;;;1.35;64.81;99024.66;5000023;28;20424;-70
2021/03/09 07:24:09;;;;;;;22.00;11.00;;;;;;;1.42;64.59;99026.50;5000030;28;20022;-70
2021/03/09 07:26:38;;;;;;;27.57;12.33;;;;;;;1.58;63.84;99031.09;4998742;28;20113;-69
2021/03/09 07:29:11;;;;;;;29.20;12.77;;;;;;;1.70;63.17;99028.84;4996227;28;20023;-71
2021/03/09 07:31:40;;;;;;;31.77;14.77;;;;;;;1.72;63.41;99032.25;4998278;28;20052;-70
2021/03/09 07:34:07;;;;;;;23.93;11.63;;;;;;;1.73;62.34;99028.06;4997249;28;20372;-70
2021/03/09 07:36:34;;;;;;;25.87;12.47;;;;;;;1.76;61.79;99026.47;4998110;28;20046;-70
2021/03/09 07:39:01;;;;;;;21.73;9.93;;;;;;;1.83;61.42;99014.78;4999551;28;20030;-70
2021/03/09 07:41:27;;;;;;;29.97;12.07;;;;;;;1.82;60.92;99026.56;4999811;28;20026;-70
2021/03/09 07:43:52;;;;;;;25.13;11.80;;;;;;;1.91;60.72;99030.16;4999334;28;20085;-70
2021/03/09 07:46:18;;;;;;;23.93;11.37;;;;;;;1.91;59.54;99023.38;4998674;28;20085;-70
2021/03/09 07:48:44;;;;;;;25.43;9.87;;;;;;;2.02;59.38;99032.06;5011731;28;20050;-70
2021/03/09 07:51:09;;;;;;;22.03;10.83;;;;;;;2.04;59.19;99027.03;5018506;28;20087;-71
2021/03/09 07:53:36;;;;;;;27.80;13.07;;;;;;;2.18;59.15;99033.25;5019613;28;20077;-73
2021/03/09 07:56:04;;;;;;;31.37;12.80;;;;;;;2.22;57.76;99028.28;5017899;28;20018;-70
2021/03/09 07:58:30;;;;;;;25.67;11.87;;;;;;;2.15;59.87;99023.06;5019425;28;20493;-70
2021/03/09 08:00:59;;;;;;;23.33;11.00;;;;;;;2.16;59.93;99027.31;5019182;28;20017;-71
2021/03/09 08:03:31;;;;;;;26.13;12.77;;;;;;;2.27;60.55;99031.75;5018836;28;20130;-68
2021/03/09 08:05:58;;;;;;;29.80;11.50;;;;;;;2.25;59.18;99023.28;5018078;28;20025;-69
2021/03/09 08:08:42;;;;;;;21.43;9.93;;;;;;;2.30;54.97;99021.69;5018632;28;20029;-70
2021/03/09 08:11:14;;;;;;;24.67;10.63;;;;;;;2.28;54.36;99018.28;5016808;28;20021;-70
2021/03/09 08:13:40;;;;;;;25.90;12.27;;;;;;;2.25;53.13;99014.81;5017783;28;20375;-71
2021/03/09 08:16:21;;;;;;;19.10;9.03;;;;;;;2.28;53.15;99019.97;5000266;28;20076;-70
2021/03/09 08:18:51;;;;;;;22.00;9.60;;;;;;;2.40;53.35;99022.72;5019930;28;20065;-70
2021/03/09 08:21:17;;;;;;;21.23;9.70;;;;;;;2.44;53.35;99006.78;5017395;28;20030;-70
2021/03/09 08:23:43;;;;;;;28.10;12.23;;;;;;;2.49;53.83;99022.06;5018205;28;20026;-70
2021/03/09 08:26:14;;;;;;;24.47;10.10;;;;;;;2.60;52.87;99015.50;4998042;28;20299;-70
2021/03/09 08:28:42;;;;;;;19.70;9.37;;;;;;;2.49;52.26;99012.78;5019896;28;20026;-70
2021/03/09 08:31:10;;;;;;;26.60;11.63;;;;;;;2.44;51.64;99014.38;5018092;28;20029;-70
2021/03/09 08:33:44;;;;;;;26.20;11.43;;;;;;;2.55;51.48;99019.63;5018490;28;20026;-69
2021/03/09 08:36:22;;;;;;;31.87;12.40;;;;;;;2.62;50.75;99018.94;5017126;28;20104;-70
2021/03/09 08:39:04;;;;;;;20.33;11.33;;;;;;;2.62;50.03;99019.78;5019583;28;20105;-70
2021/03/09 08:41:38;;;;;;;17.50;9.23;;;;;;;2.51;50.49;99023.78;5001508;28;20084;-70
2021/03/09 08:44:22;;;;;;;20.83;10.97;;;;;;;2.55;50.74;99022.16;5015952;28;20466;-70
2021/03/09 08:47:13;;;;;;;18.97;8.80;;;;;;;2.29;51.52;99014.91;5001579;28;20109;-70
2021/03/09 08:49:40;;;;;;;25.37;10.67;;;;;;;2.21;52.71;99008.84;5018819;28;20299;-69
2021/03/09 08:52:18;;;;;;;27.37;11.70;;;;;;;2.45;52.19;99015.25;5017237;28;20030;-69
2021/03/09 08:54:50;;;;;;;24.03;10.60;;;;;;;2.49;52.03;99009.41;5014297;28;20044;-69
2021/03/09 08:57:25;;;;;;;20.70;10.23;;;;;;;2.51;51.29;99006.06;5006081;28;20022;-69
2021/03/09 08:59:53;;;;;;;24.75;10.85;;;;;;;2.52;51.71;99002.72;4996976;28;20041;-69
2021/03/09 09:02:23;;;;;;;27.90;11.07;;;;;;;2.52;52.34;98995.13;5016935;28;20033;-68
2021/03/09 09:05:02;;;;;;;27.67;11.03;;;;;;;2.61;51.51;98981.78;5018715;28;20022;-70
2021/03/09 09:07:39;;;;;;;20.67;11.33;;;;;;;2.48;51.63;98997.56;5018019;28;20026;-69
2021/03/09 09:10:04;;;;;;;30.87;11.87;;;;;;;2.59;52.32;98998.66;4998428;28;20033;-69
2021/03/09 09:12:40;;;;;;;23.43;10.60;;;;;;;2.71;51.66;98994.66;5018228;28;20156;-69
2021/03/09 09:15:16;;;;;;;19.63;9.50;;;;;;;2.91;51.91;98997.53;5019205;28;20022;-72
2021/03/09 09:17:58;;;;;;;23.17;10.37;;;;;;;2.94;52.16;98999.25;5024240;28;20348;-71
2021/03/09 09:20:33;;;;;;;20.07;10.53;;;;;;;2.97;52.10;98999.31;5017470;28;20033;-69
2021/03/09 09:23:15;;;;;;;17.95;9.52;;;;;;;2.96;51.26;98995.06;4997771;28;20027;-69
2021/03/09 09:25:43;;;;;;;22.40;10.83;;;;;;;3.03;51.84;99002.78;5017494;28;20034;-67
2021/03/09 09:28:20;;;;;;;22.83;10.70;;;;;;;3.14;51.29;98992.84;5016920;28;20029;-68
2021/03/09 09:30:47;;;;;;;25.73;11.43;;;;;;;3.04;51.32;98994.38;5015481;28;20041;-68
2021/03/09 09:33:13;;;;;;;21.23;9.70;;;;;;;3.02;51.43;98996.00;5017368;28;20018;-68
2021/03/09 09:35:40;;;;;;;28.73;11.00;;;;;;;3.17;51.08;98993.75;4999304;28;20322;-69
2021/03/09 09:38:13;;;;;;;24.37;11.93;;;;;;;3.15;51.24;98986.94;5016375;28;20087;-69
2021/03/09 09:40:46;;;;;;;21.73;11.80;;;;;;;3.43;51.14;98983.16;5017942;28;20101;-68
2021/03/09 09:43:16;;;;;;;21.33;10.47;;;;;;;3.51;50.36;98976.53;5017762;28;20029;-69
2021/03/09 09:45:51;;;;;;;23.13;11.57;;;;;;;3.50;49.88;98979.88;5015986;28;20029;-70
2021/03/09 09:48:20;;;;;;;24.50;12.40;;;;;;;3.52;49.42;98975.69;5014562;28;20076;-69
2021/03/09 09:51:01;;;;;;;23.73;11.37;;;;;;;3.59;49.05;98980.88;5014441;28;20117;-68
2021/03/09 09:53:38;;;;;;;20.83;9.17;;;;;;;3.71;49.59;98969.19;5016842;28;20057;-68
2021/03/09 09:56:05;;;;;;;30.37;12.70;;;;;;;3.73;48.65;98970.06;4994750;28;20409;-68
2021/03/09 09:58:54;;;;;;;23.90;10.87;;;;;;;3.78;48.39;98960.84;4992693;28;20121;-68
2021/03/09 10:01:20;;;;;;;21.80;10.67;;;;;;;3.79;47.42;98962.53;5015939;28;20025;-68
2021/03/09 10:03:57;;;;;;;18.23;9.30;;;;;;;3.93;47.02;98956.81;4998860;28;20419;-68
2021/03/09 10:06:28;;;;;;;22.40;9.60;;;;;;;4.01;47.63;98965.38;4982876;28;20021;-68
2021/03/09 10:08:54;;;;;;;18.67;9.40;;;;;;;3.91;48.64;98960.16;5011215;28;20037;-68
2021/03/09 10:11:21;;;;;;;19.33;9.33;;;;;;;3.97;48.05;98960.22;4999430;28;20057;-69
2021/03/09 10:13:46;;;;;;;22.03;9.63;;;;;;;3.83;47.01;98956.66;4998174;28;20076;-69
2021/03/09 10:16:12;;;;;;;21.33;10.67;;;;;;;3.83;47.03;98952.44;5015865;28;20033;-67
2021/03/09 10:18:38;;;;;;;21.53;11.47;;;;;;;4.00;46.60;98940.81;5015312;28;20029;-68
2021/03/09 10:21:04;;;;;;;24.07;13.27;;;;;;;4.04;45.79;98951.84;5016818;28;20367;-68
2021/03/09 10:23:30;;;;;;;36.17;14.90;;;;;;;4.03;46.13;98951.00;4994435;28;20117;-68
2021/03/09 10:26:01;;;;;;;33.37;15.53;;;;;;;4.26;46.85;98953.81;5016660;28;20068;-67
2021/03/09 10:28:27;;;;;;;36.57;17.53;;;;;;;4.15;45.96;98955.38;5015289;28;20021;-70
2021/03/09 10:30:53;;;;;;;24.97;13.70;;;;;;;4.09;44.96;98947.69;5017951;28;20256;-71
2021/03/09 10:33:19;;;;;;;24.03;10.90;;;;;;;4.16;44.78;98949.47;5016137;28;20036;-69
2021/03/09 10:36:08;;;;;;;24.67;12.20;;;;;;;4.27;44.63;98942.84;4992158;28;20025;-69
2021/03/09 10:38:34;;;;;;;29.13;13.70;;;;;;;4.44;44.63;98946.41;5015280;28;20029;-68
2021/03/09 10:41:00;;;;;;;23.13;11.77;;;;;;;4.53;44.88;98943.97;5013432;28;20041;-67
2021/03/09 10:43:39;;;;;;;25.17;12.53;;;;;;;4.71;43.65;98937.38;4972359;28;20039;-67
2021/03/09 10:46:05;;;;;;;26.40;13.00;;;;;;;4.55;43.14;98932.13;4975199;28;20058;-68
2021/03/09 10:48:30;;;;;;;25.20;13.07;;;;;;;4.56;42.85;98936.38;4976135;28;20445;-67
2021/03/09 10:50:56;;;;;;;19.80;10.27;;;;;;;4.60;43.29;98932.16;4977598;28;20037;-68
2021/03/09 10:53:21;;;;;;;23.27;10.60;;;;;;;4.56;43.26;98926.22;4974631;28;20033;-67
2021/03/09 10:55:46;;;;;;;22.90;11.87;;;;;;;4.59;41.83;98935.53;4976892;28;20038;-69
2021/03/09 10:58:12;;;;;;;22.70;11.60;;;;;;;4.47;42.09;98926.13;4977288;28;20023;-68
2021/03/09 11:00:37;;;;;;;21.43;11.97;;;;;;;4.31;41.53;98928.50;4978358;28;20113;-69
2021/03/09 11:03:03;;;;;;;18.87;9.83;;;;;;;4.33;42.33;98926.84;4971127;28;20082;-67
2021/03/09 11:05:28;;;;;;;26.47;14.50;;;;;;;4.53;42.66;98923.66;4977568;28;20026;-66
2021/03/09 11:07:53;;;;;;;20.00;12.60;;;;;;;4.72;42.87;98916.19;4977008;28;20030;-66
2021/03/09 11:10:19;;;;;;;22.03;13.80;;;;;;;4.97;42.62;98915.53;4978338;28;20504;-68
2021/03/09 11:12:45;;;;;;;33.13;15.87;;;;;;;5.05;41.28;98912.22;4974863;28;20034;-67
2021/03/09 11:15:11;;;;;;;18.53;13.07;;;;;;;5.23;40.39;98910.66;4977837;28;20269;-67
2021/03/09 11:17:37;;;;;;;20.23;13.20;;;;;;;5.28;40.43;98907.31;4976602;28;20022;-67
2021/03/09 11:20:04;;;;;;;17.03;12.00;;;;;;;5.56;40.94;98905.75;4977327;28;20399;-63
2021/03/09 11:22:30;;;;;;;24.43;15.23;;;;;;;5.41;40.14;98906.56;4977175;28;20035;-66
2021/03/09 11:24:55;;;;;;;11.63;9.33;;;;;;;5.38;39.39;98915.84;4977297;28;20043;-67
2021/03/09 11:27:20;;;;;;;19.37;11.80;;;;;;;5.42;38.86;98895.53;4977456;28;20023;-68